Time;durP1;ratioP1;P1;durP2;ratioP2;P2;SDS_P1;SDS_P2;PMS_P1;PMS_P2;Temp;Humidity;BMP_temperature;BMP_pressure;BME280_temperature;BME280_humidity;BME280_pressure;Samples;Min_cycle;Max_cycle;Signal;HPM_P1;HPM_P2
2021/01/03 00:01:02;;;;;;;48.50;20.60;;;2.00;71.80;;;;;;5080952;28;20092;-60
2021/01/03 00:03:28;;;;;;;51.10;21.73;;;1.90;70.80;;;;;;5081606;28;20071;-60
2021/01/03 00:05:53;;;;;;;49.92;21.45;;;1.90;70.80;;;;;;5081412;28;20036;-61
2021/01/03 00:08:19;;;;;;;47.95;20.30;;;1.90;71.50;;;;;;5072850;28;20040;-61
2021/01/03 00:10:47;;;;;;;50.42;20.98;;;1.90;71.60;;;;;;5091578;28;20035;-61
2021/01/03 00:13:12;;;;;;;46.33;20.27;;;1.90;70.80;;;;;;5084733;28;20335;-61
2021/01/03 00:15:38;;;;;;;48.17;20.23;;;2.00;71.70;;;;;;5081664;28;20032;-61
2021/01/03 00:18:03;;;;;;;53.83;21.33;;;2.00;70.40;;;;;;5081167;28;20040;-61
2021/01/03 00:20:29;;;;;;;47.75;20.88;;;2.00;71.50;;;;;;5081215;28;20036;-61
2021/01/03 00:22:55;;;;;;;49.42;19.80;;;2.00;71.10;;;;;;5079963;28;20328;-60
2021/01/03 00:25:22;;;;;;;46.03;19.55;;;2.00;71.10;;;;;;5083409;28;20028;-61
2021/01/03 00:27:49;;;;;;;42.92;18.48;;;2.00;70.70;;;;;;5081517;28;20025;-61
2021/01/03 00:30:15;;;;;;;47.00;19.65;;;2.00;71.10;;;;;;5081079;28;20063;-61
2021/01/03 00:32:41;;;;;;;49.38;20.77;;;1.90;71.30;;;;;;5081006;28;20060;-61
2021/01/03 00:35:09;;;;;;;47.78;20.27;;;2.00;71.30;;;;;;5080962;28;20323;-60
2021/01/03 00:37:34;;;;;;;51.78;20.63;;;2.00;71.10;;;;;;5084035;28;20378;-61
2021/01/03 00:40:00;;;;;;;47.67;19.88;;;2.00;71.20;;;;;;5080882;28;20096;-61
2021/01/03 00:42:26;;;;;;;43.83;19.73;;;2.00;71.20;;;;;;5081337;28;20029;-61
2021/01/03 00:44:51;;;;;;;49.63;20.45;;;1.90;71.00;;;;;;5079712;28;20053;-61
2021/01/03 00:47:17;;;;;;;45.45;20.58;;;1.90;71.20;;;;;;5080845;28;20043;-60
2021/01/03 00:49:42;;;;;;;46.03;19.13;;;1.90;71.30;;;;;;5080765;28;20036;-61
2021/01/03 00:52:08;;;;;;;49.42;20.65;;;2.00;71.70;;;;;;5084212;28;20024;-61
2021/01/03 00:54:33;;;;;;;46.67;20.17;;;2.10;70.90;;;;;;5081218;28;20036;-61
2021/01/03 00:56:59;;;;;;;50.42;20.17;;;2.00;71.10;;;;;;5081002;28;20104;-61
2021/01/03 00:59:24;;;;;;;54.50;22.13;;;2.00;71.30;;;;;;5080732;28;20040;-61
2021/01/03 01:01:50;;;;;;;50.00;20.95;;;2.00;71.50;;;;;;5080742;28;20088;-61
2021/01/03 01:04:15;;;;;;;48.08;19.13;;;2.00;71.90;;;;;;5084062;28;20028;-61
2021/01/03 01:06:41;;;;;;;50.35;20.05;;;2.00;71.10;;;;;;5079702;28;20052;-60
2021/01/03 01:09:07;;;;;;;50.55;20.02;;;2.10;71.30;;;;;;5080738;28;20039;-60
2021/01/03 01:11:32;;;;;;;47.42;20.30;;;2.00;71.40;;;;;;5080172;28;20029;-60
2021/01/03 01:13:58;;;;;;;50.33;20.45;;;2.00;72.20;;;;;;5079606;28;20224;-61
2021/01/03 01:16:23;;;;;;;55.65;21.98;;;1.90;72.20;;;;;;5083984;28;20032;-61
2021/01/03 01:18:49;;;;;;;49.90;20.58;;;1.80;72.00;;;;;;5081049;28;20036;-61
2021/01/03 01:21:14;;;;;;;51.67;20.08;;;1.80;72.50;;;;;;5080447;28;20036;-60
2021/01/03 01:23:40;;;;;;;47.08;20.58;;;1.80;72.60;;;;;;5080415;28;20036;-60
2021/01/03 01:26:05;;;;;;;53.22;20.92;;;1.80;72.30;;;;;;5079773;28;20036;-61
2021/01/03 01:28:31;;;;;;;49.28;20.48;;;1.80;72.50;;;;;;5083818;28;20088;-61
2021/01/03 01:30:56;;;;;;;51.53;20.92;;;1.90;73.20;;;;;;5083236;28;20033;-60
2021/01/03 01:33:22;;;;;;;52.97;21.13;;;2.00;72.30;;;;;;5084261;28;20204;-61
2021/01/03 01:35:48;;;;;;;48.83;20.85;;;2.10;72.70;;;;;;5084225;28;20103;-61
2021/01/03 01:38:13;;;;;;;49.05;20.55;;;2.00;72.50;;;;;;5083244;28;20228;-61
2021/01/03 01:40:39;;;;;;;52.40;20.60;;;1.90;72.50;;;;;;5084512;28;20142;-61
2021/01/03 01:43:07;;;;;;;51.65;21.38;;;2.00;73.10;;;;;;5086228;28;20232;-61
2021/01/03 01:45:34;;;;;;;56.60;21.92;;;1.80;73.30;;;;;;5066404;28;20078;-61
2021/01/03 01:48:12;;;;;;;53.00;20.65;;;1.80;73.40;;;;;;5084136;28;20036;-61
2021/01/03 01:50:43;;;;;;;50.80;21.05;;;1.80;74.50;;;;;;5082955;28;20052;-61
2021/01/03 01:53:11;;;;;;;;;;;1.70;74.60;;;;;;5084710;28;20043;-61
2021/01/03 01:55:41;;;;;;;50.83;20.80;;;1.90;74.70;;;;;;5084267;28;19901;-62
2021/01/03 01:58:24;;;;;;;60.55;22.33;;;1.90;74.10;;;;;;5085975;28;20055;-61
2021/01/03 02:00:53;;;;;;;52.03;20.70;;;1.90;74.70;;;;;;5082825;28;20037;-61
2021/01/03 02:03:40;;;;;;;55.83;23.10;;;1.90;74.80;;;;;;5066282;28;20039;-62
2021/01/03 02:06:21;;;;;;;52.40;20.67;;;1.90;75.20;;;;;;5082662;28;20111;-60
2021/01/03 02:08:52;;;;;;;54.05;20.45;;;2.00;75.20;;;;;;5082491;28;20060;-61
2021/01/03 02:11:21;;;;;;;46.92;20.30;;;2.10;75.10;;;;;;5066227;28;20031;-61
2021/01/03 02:13:49;;;;;;;54.00;20.50;;;2.10;74.40;;;;;;5083396;28;20017;-61
2021/01/03 02:16:16;;;;;;;53.22;20.23;;;2.00;75.20;;;;;;5085992;28;20036;-61
2021/01/03 02:18:43;;;;;;;48.03;19.30;;;2.00;75.10;;;;;;5083542;28;20266;-61
2021/01/03 02:21:20;;;;;;;55.40;20.85;;;2.00;75.00;;;;;;5082284;28;20252;-61
2021/01/03 02:23:49;;;;;;;45.58;18.77;;;2.10;75.50;;;;;;5066216;28;20377;-61
2021/01/03 02:26:15;;;;;;;48.92;18.90;;;2.00;75.40;;;;;;5082219;28;20052;-61
2021/01/03 02:28:42;;;;;;;47.42;19.13;;;2.10;75.30;;;;;;5082344;28;20074;-61
2021/01/03 02:31:08;;;;;;;42.83;17.83;;;2.10;75.50;;;;;;5085472;28;20032;-61
2021/01/03 02:33:41;;;;;;;47.45;18.48;;;2.00;74.80;;;;;;5082337;28;20312;-61
2021/01/03 02:36:33;;;;;;;50.25;19.52;;;2.00;75.10;;;;;;5083437;28;20304;-61
2021/01/03 02:39:22;;;;;;;53.10;20.42;;;2.00;75.50;;;;;;5067938;28;20134;-61
2021/01/03 02:41:47;;;;;;;46.08;19.15;;;2.00;75.40;;;;;;5082016;28;20052;-61
2021/01/03 02:44:13;;;;;;;48.35;19.77;;;1.90;75.40;;;;;;5082602;28;20078;-60
2021/01/03 02:46:39;;;;;;;46.80;20.20;;;1.80;76.10;;;;;;5083275;28;20212;-61
2021/01/03 02:49:05;;;;;;;48.65;19.25;;;1.90;76.10;;;;;;5084776;28;20095;-61
2021/01/03 02:51:35;;;;;;;40.47;18.83;;;1.90;75.70;;;;;;5083114;28;20037;-61
2021/01/03 02:54:01;;;;;;;44.42;19.50;;;2.00;76.00;;;;;;5081463;28;20040;-61
2021/01/03 02:56:27;;;;;;;50.63;19.83;;;2.00;75.90;;;;;;5082498;28;20043;-61
2021/01/03 02:58:52;;;;;;;46.55;19.45;;;2.00;75.50;;;;;;5082798;28;20032;-61
2021/01/03 03:01:18;;;;;;;47.88;18.75;;;2.00;75.60;;;;;;5085666;28;20215;-60
2021/01/03 03:03:43;;;;;;;44.35;18.90;;;2.10;75.70;;;;;;5082558;28;20335;-60
2021/01/03 03:06:09;;;;;;;43.42;18.13;;;2.10;75.10;;;;;;5082733;28;20254;-61
2021/01/03 03:08:34;;;;;;;45.25;18.65;;;2.00;75.00;;;;;;5082372;28;20029;-61
2021/01/03 03:11:00;;;;;;;47.13;19.90;;;2.00;75.30;;;;;;5082297;28;20140;-61
2021/01/03 03:13:25;;;;;;;49.47;19.17;;;2.10;75.50;;;;;;5085695;28;20040;-61
2021/01/03 03:15:51;;;;;;;49.45;19.83;;;2.10;75.70;;;;;;5082668;28;20040;-61
2021/01/03 03:18:16;;;;;;;49.65;19.88;;;2.00;75.30;;;;;;5082506;28;20103;-61
2021/01/03 03:20:42;;;;;;;44.08;18.90;;;2.00;75.30;;;;;;5082337;28;20099;-61
2021/01/03 03:23:07;;;;;;;48.20;18.80;;;2.00;75.10;;;;;;5082198;28;20043;-62
2021/01/03 03:25:33;;;;;;;45.30;18.75;;;2.00;75.30;;;;;;5084393;28;20320;-61
2021/01/03 03:27:59;;;;;;;42.47;18.30;;;2.10;75.50;;;;;;5082541;28;20052;-61
2021/01/03 03:30:24;;;;;;;48.97;18.92;;;2.20;75.10;;;;;;5082111;28;20047;-61
2021/01/03 03:32:52;;;;;;;48.35;19.73;;;2.20;74.60;;;;;;5081952;28;20047;-61
2021/01/03 03:35:24;;;;;;;45.47;18.75;;;2.20;74.80;;;;;;5081943;28;20036;-61
2021/01/03 03:37:50;;;;;;;46.40;19.15;;;2.20;74.90;;;;;;5080872;28;20028;-60
2021/01/03 03:40:16;;;;;;;50.10;19.05;;;2.20;74.70;;;;;;5085170;28;20036;-61
2021/01/03 03:42:42;;;;;;;45.75;18.23;;;2.10;74.90;;;;;;5081714;28;20260;-61
2021/01/03 03:45:08;;;;;;;47.75;18.95;;;2.10;75.30;;;;;;5080986;28;20036;-61
2021/01/03 03:47:34;;;;;;;43.20;18.05;;;2.10;74.90;;;;;;5081518;28;20031;-61
2021/01/03 03:49:59;;;;;;;42.78;18.00;;;2.20;75.40;;;;;;5081744;28;20320;-61
2021/01/03 03:52:25;;;;;;;45.70;18.80;;;2.20;75.30;;;;;;5084443;28;20079;-61
2021/01/03 03:54:50;;;;;;;39.70;17.90;;;2.10;74.70;;;;;;5080672;28;20033;-61
2021/01/03 03:57:16;;;;;;;48.53;19.25;;;2.10;74.50;;;;;;5081656;28;20032;-61
2021/01/03 03:59:41;;;;;;;47.35;18.55;;;2.10;74.60;;;;;;5081805;28;20211;-61
2021/01/03 04:02:07;;;;;;;40.42;17.02;;;2.10;74.30;;;;;;5081400;28;20032;-61
2021/01/03 04:04:32;;;;;;;49.88;19.67;;;2.20;74.80;;;;;;5084955;28;20032;-61
2021/01/03 04:06:58;;;;;;;46.80;18.75;;;2.10;74.50;;;;;;5081584;28;20043;-61
2021/01/03 04:09:23;;;;;;;44.65;18.15;;;2.00;74.30;;;;;;5081496;28;20055;-62
2021/01/03 04:11:50;;;;;;;48.78;18.17;;;2.00;74.30;;;;;;5081720;28;20036;-61
2021/01/03 04:14:18;;;;;;;45.13;18.58;;;2.10;74.30;;;;;;5080238;28;20078;-61
2021/01/03 04:16:50;;;;;;;40.72;18.40;;;2.00;74.30;;;;;;5080277;28;20033;-61
2021/01/03 04:19:16;;;;;;;47.45;18.95;;;1.90;74.40;;;;;;5084535;28;20304;-61
2021/01/03 04:21:42;;;;;;;42.58;16.67;;;2.00;74.40;;;;;;5081640;28;20046;-61
2021/01/03 04:24:08;;;;;;;42.70;18.00;;;2.00;74.20;;;;;;5079813;28;20390;-60
2021/01/03 04:26:34;;;;;;;43.92;17.85;;;2.00;74.50;;;;;;5063549;28;20051;-61
2021/01/03 04:28:59;;;;;;;42.08;18.15;;;2.10;74.40;;;;;;5080862;28;20056;-61
2021/01/03 04:31:25;;;;;;;40.85;17.63;;;2.10;74.00;;;;;;5084736;28;20037;-61
2021/01/03 04:33:50;;;;;;;40.58;17.40;;;2.00;74.30;;;;;;5081191;28;20037;-61
2021/01/03 04:36:16;;;;;;;51.45;19.40;;;2.00;74.30;;;;;;5081467;28;20228;-60
2021/01/03 04:38:42;;;;;;;42.83;18.63;;;2.10;74.10;;;;;;5079785;28;20057;-61
2021/01/03 04:41:17;;;;;;;41.63;18.25;;;2.10;74.40;;;;;;5080950;28;20037;-61
2021/01/03 04:43:43;;;;;;;45.78;18.15;;;2.10;74.20;;;;;;5079618;28;20055;-61
2021/01/03 04:46:10;;;;;;;40.67;17.05;;;2.00;74.20;;;;;;5082970;28;20272;-61
2021/01/03 04:48:36;;;;;;;41.78;17.55;;;2.00;74.30;;;;;;5063666;28;20319;-61
2021/01/03 04:51:22;;;;;;;37.78;17.58;;;2.10;73.90;;;;;;5062948;28;20043;-61
2021/01/03 04:54:07;;;;;;;40.00;17.42;;;2.00;74.10;;;;;;5079858;28;20139;-61
2021/01/03 04:56:49;;;;;;;42.88;18.02;;;2.00;74.10;;;;;;5080985;28;20032;-61
2021/01/03 04:59:48;;;;;;;41.42;17.85;;;2.00;74.00;;;;;;5079836;28;20033;-61
2021/01/03 05:02:26;;;;;;;45.80;18.30;;;2.00;73.60;;;;;;5036858;28;20028;-61
2021/01/03 05:05:06;;;;;;;42.05;17.88;;;2.00;73.60;;;;;;5080328;28;20032;-61
2021/01/03 05:07:35;;;;;;;39.40;17.90;;;2.20;73.50;;;;;;5088181;28;20203;-61
2021/01/03 05:10:15;;;;;;;41.67;18.30;;;2.10;73.60;;;;;;5083762;28;20032;-61
2021/01/03 05:12:47;;;;;;;39.00;18.35;;;2.10;74.10;;;;;;5085091;28;20210;-61
2021/01/03 05:15:14;;;;;;;45.00;17.83;;;2.20;74.20;;;;;;5083527;28;20096;-61
2021/01/03 05:17:39;;;;;;;40.55;17.52;;;2.20;73.20;;;;;;5066955;28;20059;-60
2021/01/03 05:20:06;;;;;;;40.05;17.20;;;2.20;73.50;;;;;;5084376;28;20096;-61
2021/01/03 05:22:35;;;;;;;46.13;18.75;;;2.20;73.50;;;;;;5086799;28;20189;-61
2021/01/03 05:25:01;;;;;;;41.42;17.63;;;2.10;73.70;;;;;;5083647;28;20049;-61
2021/01/03 05:27:27;;;;;;;40.50;17.83;;;2.10;73.80;;;;;;5083113;28;20048;-61
2021/01/03 05:29:53;;;;;;;39.70;17.23;;;2.10;73.80;;;;;;5084371;28;20351;-61
2021/01/03 05:32:27;;;;;;;43.63;18.17;;;2.10;73.70;;;;;;5084262;28;20091;-61
2021/01/03 05:34:52;;;;;;;42.58;17.92;;;2.10;74.30;;;;;;5084399;28;20215;-61
2021/01/03 05:37:26;;;;;;;43.30;18.73;;;2.20;74.20;;;;;;5087496;28;20126;-61
2021/01/03 05:39:52;;;;;;;40.47;17.85;;;2.30;73.60;;;;;;5083308;28;20028;-61
2021/01/03 05:42:20;;;;;;;41.45;18.13;;;2.30;73.50;;;;;;5084237;28;20043;-60
2021/01/03 05:45:19;;;;;;;38.83;17.38;;;2.40;73.00;;;;;;5075090;28;20059;-61
2021/01/03 05:47:59;;;;;;;39.40;17.15;;;2.30;73.00;;;;;;5073327;28;20041;-61
2021/01/03 05:50:26;;;;;;;37.28;16.63;;;2.30;73.70;;;;;;5084163;28;20064;-61
2021/01/03 05:53:06;;;;;;;45.35;18.73;;;2.40;73.40;;;;;;5083277;28;20037;-61
2021/01/03 05:55:32;;;;;;;43.93;18.23;;;2.40;73.50;;;;;;5086142;28;20292;-61
2021/01/03 05:58:21;;;;;;;38.97;17.73;;;2.30;72.90;;;;;;5084279;28;20044;-61
2021/01/03 06:00:47;;;;;;;42.75;18.30;;;2.40;73.10;;;;;;5066834;28;20040;-61
2021/01/03 06:03:30;;;;;;;42.63;17.90;;;2.40;73.50;;;;;;5065997;28;20041;-61
2021/01/03 06:06:17;;;;;;;40.72;17.70;;;2.40;72.90;;;;;;5082917;28;20024;-61
2021/01/03 06:08:43;;;;;;;45.15;18.50;;;2.40;73.10;;;;;;5082890;28;20216;-61
2021/01/03 06:11:16;;;;;;;42.85;17.50;;;2.40;72.80;;;;;;5082385;28;20060;-61
2021/01/03 06:13:46;;;;;;;43.92;19.63;;;2.30;73.00;;;;;;5083516;28;20332;-62
2021/01/03 06:16:12;;;;;;;42.80;17.73;;;2.40;73.10;;;;;;5086636;28;20090;-61
2021/01/03 06:19:05;;;;;;;44.60;19.42;;;2.40;72.70;;;;;;5083817;28;20048;-60
2021/01/03 06:21:39;;;;;;;42.63;18.10;;;2.40;72.90;;;;;;5081383;28;20313;-61
2021/01/03 06:24:11;;;;;;;47.05;17.33;;;2.40;72.50;;;;;;5083231;28;20041;-61
2021/01/03 06:26:42;;;;;;;44.90;19.05;;;2.40;73.00;;;;;;5083502;28;20037;-61
2021/01/03 06:29:12;;;;;;;;;;;2.30;72.00;;;;;;5066663;28;20344;-61
2021/01/03 06:31:43;;;;;;;38.15;16.85;;;2.30;73.10;;;;;;5083886;28;19908;-62
2021/01/03 06:34:15;;;;;;;47.25;19.00;;;2.30;73.60;;;;;;5085619;28;20036;-60
2021/01/03 06:37:07;;;;;;;41.25;18.35;;;2.40;73.20;;;;;;5083456;28;20111;-61
2021/01/03 06:39:40;;;;;;;41.13;16.90;;;2.30;73.00;;;;;;5083328;28;20040;-61
2021/01/03 06:42:43;;;;;;;39.72;17.33;;;2.40;72.80;;;;;;5082238;28;20044;-61
2021/01/03 06:45:40;;;;;;;42.60;17.60;;;2.30;72.30;;;;;;5057786;28;20044;-61
2021/01/03 06:48:31;;;;;;;45.03;18.88;;;2.30;72.80;;;;;;5082806;28;20036;-61
2021/01/03 06:51:15;;;;;;;;;;;2.20;72.90;;;;;;5067724;28;20109;-62
2021/01/03 06:53:55;;;;;;;41.03;16.02;;;2.30;73.00;;;;;;5082720;28;20152;-60
2021/01/03 06:57:02;;;;;;;38.13;16.50;;;2.20;72.60;;;;;;5081807;28;20032;-61
2021/01/03 06:59:27;;;;;;;40.22;17.63;;;2.30;73.30;;;;;;5079601;28;20056;-60
2021/01/03 07:01:53;;;;;;;39.70;17.35;;;2.40;73.10;;;;;;5082593;28;20044;-61
2021/01/03 07:04:25;;;;;;;39.90;17.40;;;2.40;72.80;;;;;;5085511;28;20028;-61
2021/01/03 07:06:50;;;;;;;40.33;16.98;;;2.40;73.30;;;;;;5081895;28;20032;-61
2021/01/03 07:09:16;;;;;;;43.50;18.17;;;2.40;73.20;;;;;;5082356;28;20078;-61
2021/01/03 07:11:52;;;;;;;40.20;18.00;;;2.40;73.00;;;;;;5082276;28;20096;-62
2021/01/03 07:14:23;;;;;;;40.65;16.95;;;2.50;72.90;;;;;;5082401;28;20036;-61
2021/01/03 07:16:52;;;;;;;45.40;18.63;;;2.50;72.30;;;;;;5082439;28;20024;-61
2021/01/03 07:19:37;;;;;;;45.47;20.02;;;2.40;72.50;;;;;;5085334;28;20026;-62
2021/01/03 07:22:10;;;;;;;46.22;18.17;;;2.40;72.90;;;;;;5082987;28;20362;-61
2021/01/03 07:24:46;;;;;;;41.42;17.08;;;2.40;73.00;;;;;;5082211;28;20036;-61
2021/01/03 07:27:35;;;;;;;41.90;18.15;;;2.40;72.50;;;;;;5080468;28;20033;-61
2021/01/03 07:30:16;;;;;;;38.58;16.95;;;2.30;72.60;;;;;;5082483;28;20099;-60
2021/01/03 07:32:47;;;;;;;44.17;17.50;;;2.40;73.50;;;;;;5082281;28;20037;-61
2021/01/03 07:35:18;;;;;;;42.60;17.75;;;2.40;73.00;;;;;;5080903;28;20033;-60
2021/01/03 07:37:44;;;;;;;40.33;16.92;;;2.50;72.90;;;;;;5081741;28;20028;-61
2021/01/03 07:40:13;;;;;;;38.35;16.92;;;2.40;72.50;;;;;;5084868;28;20300;-61
2021/01/03 07:42:45;;;;;;;40.83;17.02;;;2.40;72.60;;;;;;5081949;28;20036;-61
2021/01/03 07:45:13;;;;;;;40.38;18.48;;;2.50;72.70;;;;;;5081939;28;20032;-61
2021/01/03 07:47:48;;;;;;;43.88;17.23;;;2.40;72.10;;;;;;5081855;28;20032;-61
2021/01/03 07:50:20;;;;;;;39.75;17.80;;;2.40;72.50;;;;;;5080404;28;20032;-61
2021/01/03 07:53:04;;;;;;;;;;;2.40;72.40;;;;;;5081809;28;20066;-61
2021/01/03 07:55:31;;;;;;;44.60;17.27;;;2.40;72.80;;;;;;5085177;28;19892;-61
2021/01/03 07:58:03;;;;;;;45.58;17.17;;;2.40;72.70;;;;;;5081931;28;20037;-61
2021/01/03 08:00:29;;;;;;;;;;;2.40;72.80;;;;;;5081082;28;20262;-63
2021/01/03 08:02:57;;;;;;;43.67;17.70;;;2.40;72.50;;;;;;5081548;28;19904;-61
2021/01/03 08:05:25;;;;;;;42.10;17.10;;;2.40;72.90;;;;;;5080314;28;20099;-60
2021/01/03 08:07:51;;;;;;;43.45;17.38;;;2.40;73.10;;;;;;5081219;28;20105;-62
2021/01/03 08:10:16;;;;;;;41.40;17.52;;;2.40;72.60;;;;;;5083356;28;20052;-61
2021/01/03 08:12:53;;;;;;;41.45;17.25;;;2.40;72.70;;;;;;5081434;28;20083;-61
2021/01/03 08:15:27;;;;;;;45.08;17.52;;;2.50;72.30;;;;;;5064140;28;20096;-63
2021/01/03 08:17:59;;;;;;;36.95;16.65;;;2.50;72.60;;;;;;5080398;28;20372;-62
2021/01/03 08:20:28;;;;;;;43.08;18.00;;;2.50;72.80;;;;;;5081551;28;20032;-62
2021/01/03 08:22:53;;;;;;;41.10;16.88;;;2.50;72.90;;;;;;5079894;28;20031;-62
2021/01/03 08:25:25;;;;;;;46.45;17.55;;;2.50;72.40;;;;;;5083151;28;20028;-62
2021/01/03 08:28:08;;;;;;;39.92;17.83;;;2.50;73.20;;;;;;5081356;28;20189;-62
2021/01/03 08:30:35;;;;;;;38.75;16.33;;;2.50;72.40;;;;;;5063768;28;20231;-62
2021/01/03 08:33:17;;;;;;;41.35;17.27;;;2.60;72.60;;;;;;5080254;28;20037;-62
2021/01/03 08:35:42;;;;;;;39.80;17.65;;;2.50;72.00;;;;;;5048089;28;20032;-62
2021/01/03 08:38:08;;;;;;;39.97;16.67;;;2.50;71.70;;;;;;5081257;28;20381;-62
2021/01/03 08:40:39;;;;;;;40.60;17.63;;;2.60;72.10;;;;;;5082840;28;20032;-61
2021/01/03 08:43:09;;;;;;;39.85;16.90;;;2.70;71.90;;;;;;5081510;28;20115;-62
2021/01/03 08:45:38;;;;;;;39.40;16.90;;;2.60;71.60;;;;;;5080190;28;20044;-67
2021/01/03 08:48:05;;;;;;;36.92;16.27;;;2.70;72.40;;;;;;5080432;28;20031;-61
2021/01/03 08:50:33;;;;;;;37.92;16.67;;;2.60;71.90;;;;;;5079931;28;20057;-60
2021/01/03 08:53:09;;;;;;;37.10;16.67;;;2.60;71.50;;;;;;5080936;28;20044;-60
2021/01/03 08:55:38;;;;;;;40.60;16.52;;;2.50;71.70;;;;;;5083848;28;20036;-60
2021/01/03 08:58:08;;;;;;;39.67;17.05;;;2.60;71.90;;;;;;5080640;28;20024;-59
2021/01/03 09:00:35;;;;;;;34.47;15.45;;;2.60;71.70;;;;;;5079910;28;20326;-62
2021/01/03 09:03:02;;;;;;;36.88;16.25;;;2.70;71.40;;;;;;5079448;28;20350;-60
2021/01/03 09:05:35;;;;;;;35.42;15.60;;;2.70;71.40;;;;;;5079689;28;20074;-61
2021/01/03 09:08:01;;;;;;;38.05;15.75;;;2.80;71.40;;;;;;5063577;28;20038;-60
2021/01/03 09:10:40;;;;;;;38.38;16.48;;;2.70;71.00;;;;;;5083851;28;20315;-61
2021/01/03 09:13:26;;;;;;;37.80;16.10;;;2.70;71.00;;;;;;5065136;28;20037;-61
2021/01/03 09:16:19;;;;;;;32.80;15.05;;;2.70;71.20;;;;;;5080325;28;20076;-61
2021/01/03 09:19:11;;;;;;;35.78;15.48;;;2.80;71.80;;;;;;5074785;28;20042;-62
2021/01/03 09:21:46;;;;;;;31.42;14.95;;;2.90;71.40;;;;;;5080938;28;20036;-61
2021/01/03 09:24:12;;;;;;;40.00;17.10;;;2.90;70.80;;;;;;5063094;28;20037;-61
2021/01/03 09:26:39;;;;;;;36.40;15.63;;;2.90;71.10;;;;;;5062560;28;20036;-61
2021/01/03 09:29:16;;;;;;;37.13;15.57;;;2.90;70.20;;;;;;5080607;28;20264;-60
2021/01/03 09:31:59;;;;;;;36.65;16.02;;;2.80;70.60;;;;;;5079823;28;20307;-61
2021/01/03 09:34:51;;;;;;;38.30;15.38;;;2.80;70.60;;;;;;5065730;28;20064;-60
2021/01/03 09:37:22;;;;;;;30.25;15.07;;;2.90;70.30;;;;;;5080130;28;20112;-61
2021/01/03 09:40:10;;;;;;;35.58;15.05;;;2.90;70.60;;;;;;5080568;28;20036;-60
2021/01/03 09:42:43;;;;;;;37.00;16.17;;;2.90;70.40;;;;;;5080428;28;20090;-60
2021/01/03 09:45:30;;;;;;;31.48;15.50;;;2.90;70.40;;;;;;5073086;28;20040;-59
2021/01/03 09:47:55;;;;;;;35.90;15.60;;;2.80;70.10;;;;;;5079055;28;20336;-60
2021/01/03 09:50:24;;;;;;;33.88;14.70;;;2.90;71.10;;;;;;5080699;28;20044;-59
2021/01/03 09:53:09;;;;;;;29.83;13.93;;;2.90;70.00;;;;;;5082753;28;20048;-59
2021/01/03 09:55:39;;;;;;;30.83;13.88;;;2.80;70.60;;;;;;5084677;28;20037;-60
2021/01/03 09:58:05;;;;;;;28.80;13.73;;;2.90;70.50;;;;;;5066145;28;20036;-60
2021/01/03 10:00:54;;;;;;;30.33;13.95;;;2.90;70.60;;;;;;5082635;28;20039;-59
2021/01/03 10:03:41;;;;;;;30.80;13.73;;;3.00;70.50;;;;;;5084655;28;20061;-59
2021/01/03 10:06:17;;;;;;;29.05;13.30;;;3.10;71.20;;;;;;5082173;28;20051;-61
2021/01/03 10:08:43;;;;;;;28.80;13.85;;;3.10;70.50;;;;;;5083787;28;20052;-60
2021/01/03 10:11:10;;;;;;;28.50;13.25;;;3.20;70.70;;;;;;5082355;28;20056;-60
2021/01/03 10:13:36;;;;;;;32.20;14.02;;;3.10;68.90;;;;;;5084979;28;20045;-62
2021/01/03 10:16:19;;;;;;;28.40;13.05;;;3.00;69.10;;;;;;5081933;28;20147;-63
2021/01/03 10:18:45;;;;;;;28.75;13.40;;;3.10;69.90;;;;;;5082052;28;20111;-63
2021/01/03 10:21:35;;;;;;;32.45;13.85;;;3.10;70.10;;;;;;5063791;28;20036;-62
2021/01/03 10:24:18;;;;;;;31.23;14.27;;;3.10;69.00;;;;;;5081651;28;20082;-63
2021/01/03 10:26:45;;;;;;;32.00;14.55;;;3.10;70.40;;;;;;5083358;28;20033;-63
2021/01/03 10:29:12;;;;;;;30.75;13.90;;;3.00;69.00;;;;;;5082196;28;20036;-63
2021/01/03 10:31:41;;;;;;;31.65;14.13;;;3.10;69.20;;;;;;5081274;28;20263;-63
2021/01/03 10:34:07;;;;;;;29.60;14.00;;;3.10;69.90;;;;;;5083766;28;20354;-60
2021/01/03 10:36:33;;;;;;;30.98;13.77;;;3.20;69.70;;;;;;5081438;28;20053;-61
2021/01/03 10:38:58;;;;;;;30.55;13.80;;;3.40;68.80;;;;;;5080258;28;20321;-60
2021/01/03 10:41:31;;;;;;;26.25;13.57;;;3.30;68.20;;;;;;5082965;28;20028;-61
2021/01/03 10:43:56;;;;;;;31.42;14.95;;;3.30;68.10;;;;;;5081270;28;21399;-61
2021/01/03 10:46:22;;;;;;;32.65;14.30;;;3.30;68.10;;;;;;5084723;28;20086;-61
2021/01/03 10:48:47;;;;;;;30.63;15.15;;;3.30;68.30;;;;;;5030698;28;20348;-61
2021/01/03 10:51:13;;;;;;;31.02;13.88;;;3.40;68.00;;;;;;5081289;28;20059;-61
2021/01/03 10:53:38;;;;;;;29.65;13.98;;;3.40;67.80;;;;;;5082834;28;20086;-60
2021/01/03 10:56:05;;;;;;;30.83;14.20;;;3.40;68.30;;;;;;5081222;28;20033;-61
2021/01/03 10:58:30;;;;;;;30.95;14.23;;;3.50;67.80;;;;;;5082256;28;20092;-60
2021/01/03 11:00:56;;;;;;;29.05;13.23;;;3.40;67.00;;;;;;5081318;28;20212;-61
2021/01/03 11:03:21;;;;;;;33.05;14.80;;;3.50;67.50;;;;;;5080756;28;20055;-60
2021/01/03 11:05:47;;;;;;;31.02;13.38;;;3.60;68.20;;;;;;5080861;28;20043;-61
2021/01/03 11:08:12;;;;;;;30.45;13.48;;;3.60;68.50;;;;;;5082665;28;20097;-61
2021/01/03 11:10:38;;;;;;;31.08;13.75;;;3.70;68.20;;;;;;5082299;28;20032;-62
2021/01/03 11:13:03;;;;;;;29.48;13.07;;;3.70;66.80;;;;;;5082349;28;20227;-60
2021/01/03 11:15:29;;;;;;;25.90;12.75;;;3.70;67.10;;;;;;5080658;28;20389;-62
2021/01/03 11:17:54;;;;;;;26.98;12.98;;;3.70;66.90;;;;;;5079482;28;20316;-62
2021/01/03 11:20:21;;;;;;;26.42;12.35;;;3.80;67.40;;;;;;5082423;28;20028;-62
2021/01/03 11:22:46;;;;;;;26.80;12.80;;;3.90;66.50;;;;;;5079224;28;20100;-61
2021/01/03 11:25:13;;;;;;;25.88;12.35;;;3.80;65.50;;;;;;5083464;28;20393;-61
2021/01/03 11:27:38;;;;;;;22.60;11.73;;;3.70;65.50;;;;;;5080663;28;20033;-61
2021/01/03 11:30:05;;;;;;;20.55;10.60;;;3.70;65.60;;;;;;5080420;28;20060;-62
2021/01/03 11:32:31;;;;;;;24.27;11.68;;;3.80;66.30;;;;;;5082147;28;20036;-61
2021/01/03 11:34:57;;;;;;;25.70;11.90;;;3.80;64.80;;;;;;5080591;28;20201;-61
2021/01/03 11:37:25;;;;;;;19.27;9.88;;;3.70;65.20;;;;;;5083712;28;20046;-62
2021/01/03 11:39:50;;;;;;;22.58;10.32;;;3.70;64.70;;;;;;5063009;28;20071;-62
2021/01/03 11:42:27;;;;;;;19.83;10.32;;;3.70;64.20;;;;;;5080396;28;20033;-62
2021/01/03 11:44:52;;;;;;;23.08;11.30;;;3.60;63.90;;;;;;5080202;28;20056;-63
2021/01/03 11:47:18;;;;;;;22.08;10.95;;;3.60;64.00;;;;;;5082077;28;20037;-60
2021/01/03 11:49:44;;;;;;;25.38;12.18;;;3.70;65.00;;;;;;5079686;28;20047;-63
2021/01/03 11:52:10;;;;;;;22.20;11.00;;;3.70;65.70;;;;;;5082246;28;20062;-62
2021/01/03 11:54:35;;;;;;;17.77;9.85;;;3.80;65.10;;;;;;5080104;28;20036;-60
2021/01/03 11:57:01;;;;;;;19.08;10.35;;;3.70;64.40;;;;;;5062101;28;20048;-61
2021/01/03 11:59:27;;;;;;;20.77;10.40;;;3.80;64.90;;;;;;5081661;28;20040;-61
2021/01/03 12:01:59;;;;;;;20.02;9.90;;;3.90;64.90;;;;;;5079088;28;20040;-63
2021/01/03 12:04:25;;;;;;;16.77;8.52;;;3.90;64.40;;;;;;5065540;28;20058;-63
2021/01/03 12:06:58;;;;;;;19.52;10.15;;;3.90;65.00;;;;;;5061952;28;20052;-62
2021/01/03 12:09:26;;;;;;;20.17;9.75;;;3.90;64.50;;;;;;5078320;28;20055;-63
2021/01/03 12:11:52;;;;;;;18.27;9.45;;;4.00;65.20;;;;;;5078202;28;20036;-64
2021/01/03 12:14:18;;;;;;;18.98;10.00;;;3.90;64.20;;;;;;5079894;28;20338;-63
2021/01/03 12:16:44;;;;;;;19.70;9.77;;;4.00;64.50;;;;;;5062238;28;20032;-63
2021/01/03 12:19:09;;;;;;;18.80;9.35;;;3.90;62.80;;;;;;5081638;28;20033;-63
2021/01/03 12:21:35;;;;;;;17.23;9.20;;;3.90;64.20;;;;;;5078415;28;20070;-66
2021/01/03 12:24:00;;;;;;;16.85;9.18;;;3.90;62.80;;;;;;5077964;28;20032;-66
2021/01/03 12:26:36;;;;;;;18.95;10.13;;;3.90;62.60;;;;;;5080142;28;20028;-64
2021/01/03 12:29:02;;;;;;;17.15;8.98;;;3.90;63.00;;;;;;5061614;28;20043;-68
2021/01/03 12:31:35;;;;;;;19.13;10.25;;;3.80;63.80;;;;;;5081908;28;20350;-64
2021/01/03 12:34:01;;;;;;;20.33;9.70;;;3.90;63.00;;;;;;5078459;28;20040;-66
2021/01/03 12:36:26;;;;;;;19.65;9.95;;;3.80;63.70;;;;;;5061578;28;20071;-65
2021/01/03 12:38:52;;;;;;;24.77;10.85;;;3.90;62.90;;;;;;5077899;28;20332;-66
2021/01/03 12:41:21;;;;;;;20.10;10.43;;;3.90;64.00;;;;;;5079830;28;20078;-65
2021/01/03 12:43:47;;;;;;;19.48;10.15;;;3.90;63.60;;;;;;5079149;28;20124;-62
2021/01/03 12:46:12;;;;;;;22.35;11.00;;;4.00;63.50;;;;;;5082684;28;20044;-63
2021/01/03 12:48:38;;;;;;;23.20;12.02;;;4.00;64.10;;;;;;5079485;28;20371;-62
2021/01/03 12:51:04;;;;;;;22.48;11.30;;;4.00;63.80;;;;;;5079427;28;20131;-63
2021/01/03 12:53:29;;;;;;;22.80;11.13;;;3.90;62.50;;;;;;5079752;28;20055;-63